Time;durP1;ratioP1;P1;durP2;ratioP2;P2;SDS_P1;SDS_P2;PMS_P1;PMS_P2;Temp;Humidity;BMP_temperature;BMP_pressure;BME280_temperature;BME280_humidity;BME280_pressure;Samples;Min_cycle;Max_cycle;Signal;HPM_P1;HPM_P2
2022/09/08 00:00:10;;;;;;;16.42;14.80;;;18.80;66.70;;;;;;4925998;29;20062;-69
2022/09/08 00:02:36;;;;;;;14.65;13.35;;;18.60;66.90;;;;;;4945633;29;20052;-69
2022/09/08 00:05:03;;;;;;;15.23;13.65;;;18.50;67.10;;;;;;4931062;29;20102;-69
2022/09/08 00:07:32;;;;;;;15.93;14.43;;;18.50;67.40;;;;;;4949839;28;20055;-69
2022/09/08 00:09:59;;;;;;;16.50;15.00;;;18.40;67.60;;;;;;4936597;29;20059;-69
2022/09/08 00:12:25;;;;;;;16.08;14.48;;;18.40;67.80;;;;;;4916881;29;20062;-69
2022/09/08 00:14:52;;;;;;;16.80;15.20;;;18.30;67.90;;;;;;4935068;29;20052;-69
2022/09/08 00:17:18;;;;;;;16.25;14.85;;;18.30;68.10;;;;;;4928019;29;20040;-69
2022/09/08 00:19:45;;;;;;;16.20;14.50;;;18.20;68.20;;;;;;4916229;29;20044;-69
2022/09/08 00:22:10;;;;;;;18.95;17.08;;;18.20;68.30;;;;;;4919140;29;20381;-69
2022/09/08 00:24:36;;;;;;;18.17;16.35;;;18.20;68.40;;;;;;4919519;29;20049;-69
2022/09/08 00:27:02;;;;;;;20.23;18.33;;;18.20;68.60;;;;;;4937323;29;20055;-69
2022/09/08 00:29:27;;;;;;;19.15;17.42;;;18.10;68.70;;;;;;4937182;29;20065;-67
2022/09/08 00:31:53;;;;;;;18.98;17.25;;;18.10;68.90;;;;;;4935180;29;20055;-68
2022/09/08 00:34:19;;;;;;;20.02;18.15;;;18.00;69.50;;;;;;4950941;29;20043;-68
2022/09/08 00:36:45;;;;;;;20.88;18.92;;;18.00;69.30;;;;;;4937029;29;20102;-69
2022/09/08 00:39:11;;;;;;;21.92;19.85;;;17.90;69.40;;;;;;4953119;28;20118;-69
2022/09/08 00:41:37;;;;;;;21.67;19.65;;;17.90;69.70;;;;;;4934779;29;20056;-69
2022/09/08 00:44:40;;;;;;;23.67;21.40;;;17.90;69.90;;;;;;4936364;29;20099;-69
2022/09/08 00:47:13;;;;;;;23.33;21.02;;;17.80;70.20;;;;;;4952899;29;20054;-69
2022/09/08 00:49:40;;;;;;;24.05;21.83;;;17.80;70.40;;;;;;4951113;28;20043;-69
2022/09/08 00:52:06;;;;;;;23.92;21.67;;;17.80;70.50;;;;;;4929076;29;20048;-69
2022/09/08 00:54:32;;;;;;;25.35;23.05;;;17.70;70.70;;;;;;4933596;29;20058;-69
2022/09/08 00:56:58;;;;;;;23.83;21.48;;;17.70;70.80;;;;;;4952983;29;20068;-69
2022/09/08 00:59:25;;;;;;;27.02;24.42;;;17.70;71.00;;;;;;4929330;29;20055;-69
2022/09/08 01:01:53;;;;;;;16.48;14.93;;;17.70;71.10;;;;;;4920235;29;20047;-69
2022/09/08 01:04:19;;;;;;;17.55;16.02;;;17.70;71.20;;;;;;4914257;29;20480;-69
2022/09/08 01:12:51;;;;;;;21.17;19.33;;;17.70;71.20;;;;;;4932225;29;20066;-68
2022/09/08 01:15:23;;;;;;;20.65;18.73;;;17.70;71.30;;;;;;4935986;29;20043;-68
2022/09/08 01:17:51;;;;;;;12.18;11.05;;;17.80;71.40;;;;;;4937585;29;20486;-68
2022/09/08 01:20:20;;;;;;;16.02;14.45;;;17.80;71.30;;;;;;4936974;29;20095;-69
2022/09/08 01:23:04;;;;;;;21.10;19.10;;;17.80;71.30;;;;;;4922185;29;20119;-69
2022/09/08 01:25:43;;;;;;;30.20;27.40;;;17.80;71.20;;;;;;4917221;29;20052;-69
2022/09/08 01:28:41;;;;;;;32.28;29.27;;;17.90;71.30;;;;;;4917119;29;20044;-69
2022/09/08 01:31:07;;;;;;;31.15;28.35;;;17.90;71.50;;;;;;4927186;29;20048;-69
2022/09/08 01:33:33;;;;;;;30.83;28.02;;;17.90;71.50;;;;;;4928178;29;20040;-69
2022/09/08 01:36:05;;;;;;;30.15;27.35;;;17.90;71.60;;;;;;4952149;29;20047;-67
2022/09/08 01:38:31;;;;;;;31.98;28.92;;;17.90;71.70;;;;;;4936776;29;20477;-69
2022/09/08 01:40:57;;;;;;;31.92;28.83;;;17.90;71.70;;;;;;4950642;28;20048;-69
2022/09/08 01:43:22;;;;;;;31.05;28.02;;;17.90;71.80;;;;;;4942735;29;20048;-67
2022/09/08 01:45:49;;;;;;;26.10;23.70;;;17.90;71.90;;;;;;4918234;29;20127;-69
2022/09/08 01:48:15;;;;;;;31.95;29.05;;;17.90;71.90;;;;;;4917001;29;20457;-69
2022/09/08 01:50:41;;;;;;;30.38;27.42;;;18.00;71.90;;;;;;4918044;29;20084;-69
2022/09/08 01:53:06;;;;;;;29.35;26.63;;;18.00;71.90;;;;;;4928583;29;20127;-69
2022/09/08 01:55:32;;;;;;;25.02;22.60;;;18.00;71.90;;;;;;4916956;29;20056;-69
2022/09/08 01:57:58;;;;;;;28.27;25.38;;;18.00;71.90;;;;;;4918932;29;20047;-69
2022/09/08 02:00:23;;;;;;;32.70;29.67;;;18.00;71.80;;;;;;4951479;29;20392;-69
2022/09/08 02:02:49;;;;;;;32.15;29.15;;;18.00;71.80;;;;;;4937727;29;20071;-69
2022/09/08 02:05:15;;;;;;;32.40;29.50;;;18.00;71.80;;;;;;4932200;29;20072;-69
2022/09/08 02:07:40;;;;;;;27.15;24.85;;;18.00;71.80;;;;;;4916557;29;20043;-69
2022/09/08 02:10:07;;;;;;;28.50;26.00;;;18.00;71.80;;;;;;4916594;29;20548;-69
2022/09/08 02:12:33;;;;;;;27.38;25.08;;;18.00;71.80;;;;;;4902957;29;20036;-69
2022/09/08 02:14:59;;;;;;;27.73;25.20;;;18.10;71.80;;;;;;4934996;29;20124;-69
2022/09/08 02:17:26;;;;;;;20.13;18.20;;;18.10;71.80;;;;;;4929807;29;20135;-69
2022/09/08 02:19:52;;;;;;;17.27;15.68;;;18.10;71.50;;;;;;4940487;29;20044;-69
2022/09/08 02:22:18;;;;;;;23.38;21.33;;;18.10;71.40;;;;;;4924499;29;20111;-69
2022/09/08 02:24:44;;;;;;;27.52;24.98;;;18.10;71.30;;;;;;4916728;29;20048;-69
2022/09/08 02:27:10;;;;;;;18.65;16.98;;;18.20;71.30;;;;;;4916004;29;20044;-69
2022/09/08 02:29:36;;;;;;;13.45;12.25;;;18.20;71.60;;;;;;4925912;29;20094;-69
2022/09/08 02:32:02;;;;;;;25.17;22.77;;;18.20;70.90;;;;;;4932740;29;20512;-69
2022/09/08 02:34:28;;;;;;;28.67;26.17;;;18.20;70.70;;;;;;4917086;29;20048;-69
2022/09/08 02:36:54;;;;;;;25.10;22.83;;;18.30;70.70;;;;;;4930482;29;20087;-69
2022/09/08 02:39:20;;;;;;;21.55;19.50;;;18.30;70.80;;;;;;4950818;29;20080;-69
2022/09/08 02:41:47;;;;;;;18.33;16.73;;;18.30;70.70;;;;;;4924513;29;20086;-69
2022/09/08 02:44:14;;;;;;;29.52;26.90;;;18.30;70.60;;;;;;4915191;29;20056;-69
2022/09/08 02:46:41;;;;;;;33.47;30.38;;;18.40;71.20;;;;;;4907757;29;20119;-69
2022/09/08 02:49:08;;;;;;;31.30;28.60;;;18.40;70.80;;;;;;4929839;29;20055;-69
2022/09/08 02:51:34;;;;;;;34.15;31.13;;;18.40;70.80;;;;;;4921771;29;20126;-69
2022/09/08 02:53:59;;;;;;;27.95;25.33;;;18.40;70.90;;;;;;4923982;29;20582;-69
2022/09/08 02:56:25;;;;;;;20.73;18.83;;;18.50;71.00;;;;;;4950438;29;20032;-69
2022/09/08 02:58:51;;;;;;;24.02;21.85;;;18.50;70.90;;;;;;4933702;29;20484;-69
2022/09/08 03:01:17;;;;;;;24.02;21.90;;;18.50;70.80;;;;;;4948509;29;20050;-69
2022/09/08 03:03:43;;;;;;;25.30;23.02;;;18.50;70.70;;;;;;4929874;29;20170;-69
2022/09/08 03:06:09;;;;;;;17.08;15.57;;;18.50;70.70;;;;;;4919363;29;20083;-67
2022/09/08 03:08:36;;;;;;;16.60;15.05;;;18.50;70.30;;;;;;4915665;29;20080;-67
2022/09/08 03:11:02;;;;;;;13.35;12.02;;;18.50;70.10;;;;;;4921920;29;20050;-67
2022/09/08 03:13:29;;;;;;;17.05;15.48;;;18.60;70.00;;;;;;4923425;29;20048;-67
2022/09/08 03:15:55;;;;;;;24.48;22.38;;;18.60;69.80;;;;;;4915593;29;20032;-67
2022/09/08 03:18:22;;;;;;;16.90;15.40;;;18.60;69.70;;;;;;4928247;29;20118;-67
2022/09/08 03:21:02;;;;;;;12.52;11.43;;;18.60;69.50;;;;;;4946706;29;20115;-67
2022/09/08 03:23:28;;;;;;;15.20;13.85;;;18.60;69.00;;;;;;4924310;29;20538;-67
2022/09/08 03:25:54;;;;;;;13.77;12.57;;;18.70;69.00;;;;;;4950626;29;20048;-67
2022/09/08 03:28:24;;;;;;;18.17;16.67;;;18.70;68.80;;;;;;4950350;28;20404;-67
2022/09/08 03:30:49;;;;;;;26.85;24.38;;;18.70;68.80;;;;;;4931475;29;20122;-67
2022/09/08 03:33:16;;;;;;;27.92;25.15;;;18.80;69.30;;;;;;4923751;29;20453;-67
2022/09/08 03:35:42;;;;;;;26.27;23.98;;;18.80;69.50;;;;;;4933822;29;20099;-67
2022/09/08 03:38:07;;;;;;;25.75;23.38;;;18.80;69.50;;;;;;4921366;29;20365;-67
2022/09/08 03:40:34;;;;;;;31.00;28.25;;;18.90;69.50;;;;;;4915658;29;20116;-67
2022/09/08 03:43:00;;;;;;;20.60;18.80;;;18.90;69.50;;;;;;4915564;29;20584;-67
2022/09/08 03:45:26;;;;;;;21.30;19.40;;;18.90;69.40;;;;;;4916617;29;20107;-67
2022/09/08 03:47:52;;;;;;;18.05;16.35;;;19.00;69.20;;;;;;4899546;29;20100;-67
2022/09/08 03:50:19;;;;;;;28.05;25.08;;;19.00;69.00;;;;;;4915938;29;20075;-67
2022/09/08 03:52:44;;;;;;;21.73;19.73;;;19.00;69.00;;;;;;4931401;29;20051;-67
2022/09/08 03:55:11;;;;;;;17.88;16.27;;;19.00;69.00;;;;;;4948659;28;20044;-67
2022/09/08 03:57:39;;;;;;;26.50;24.10;;;19.00;68.90;;;;;;4920729;29;20547;-67
2022/09/08 04:00:08;;;;;;;25.48;22.95;;;19.00;69.00;;;;;;4937333;29;20043;-67
2022/09/08 04:02:33;;;;;;;19.88;18.08;;;19.00;69.20;;;;;;4934893;29;20056;-67
2022/09/08 04:04:59;;;;;;;27.73;25.15;;;19.00;69.20;;;;;;4922876;29;20055;-67
2022/09/08 04:07:28;;;;;;;33.03;29.45;;;19.10;69.20;;;;;;4933752;29;20051;-68
2022/09/08 04:09:54;;;;;;;29.50;26.70;;;19.10;69.50;;;;;;4937805;29;20050;-67
2022/09/08 04:12:20;;;;;;;35.72;32.13;;;19.10;69.70;;;;;;4937929;29;20047;-68
2022/09/08 04:14:49;;;;;;;27.25;24.60;;;19.00;69.80;;;;;;4953492;29;20043;-67
2022/09/08 04:17:15;;;;;;;20.67;18.83;;;19.00;69.90;;;;;;4946884;29;20044;-67
2022/09/08 04:19:41;;;;;;;34.22;30.92;;;19.00;69.50;;;;;;4923228;29;20040;-67
2022/09/08 04:22:07;;;;;;;26.17;23.63;;;19.00;69.80;;;;;;4931535;29;20048;-67
2022/09/08 04:24:33;;;;;;;28.60;25.98;;;19.00;70.10;;;;;;4936676;29;20055;-67
2022/09/08 04:26:59;;;;;;;22.75;20.63;;;19.00;70.10;;;;;;4935732;29;20099;-67
2022/09/08 04:29:26;;;;;;;22.13;20.13;;;19.00;70.00;;;;;;4918336;29;20048;-68
2022/09/08 04:31:52;;;;;;;23.63;21.52;;;18.90;69.90;;;;;;4930592;29;20043;-67
2022/09/08 04:34:18;;;;;;;27.52;24.92;;;19.00;70.40;;;;;;4921203;29;20403;-67
2022/09/08 04:36:44;;;;;;;30.02;27.13;;;19.00;70.00;;;;;;4918574;29;20044;-67
2022/09/08 04:39:11;;;;;;;32.42;29.40;;;18.90;70.10;;;;;;4949921;28;20501;-67
2022/09/08 04:41:38;;;;;;;14.82;13.25;;;19.00;70.40;;;;;;4926853;29;20051;-67
2022/09/08 04:44:05;;;;;;;28.80;26.10;;;18.90;69.90;;;;;;4950330;29;20387;-67
2022/09/08 04:46:32;;;;;;;22.38;20.38;;;18.90;70.00;;;;;;4920290;29;20040;-67
2022/09/08 04:48:58;;;;;;;16.88;15.32;;;18.90;69.80;;;;;;4952584;28;20054;-67
2022/09/08 04:51:26;;;;;;;21.20;19.23;;;18.90;69.60;;;;;;4936245;29;20050;-67
2022/09/08 04:53:52;;;;;;;28.05;25.50;;;18.90;69.50;;;;;;4936446;29;20555;-67
2022/09/08 04:56:19;;;;;;;13.90;12.63;;;18.90;69.70;;;;;;4936645;29;20050;-67
2022/09/08 04:58:46;;;;;;;14.82;13.45;;;18.90;69.60;;;;;;4936582;29;20087;-67
2022/09/08 05:01:19;;;;;;;28.27;25.67;;;19.00;69.30;;;;;;4943967;29;20507;-67
2022/09/08 05:03:46;;;;;;;24.38;22.15;;;19.00;69.70;;;;;;4928053;29;20051;-67
2022/09/08 05:06:14;;;;;;;23.33;21.02;;;19.00;69.80;;;;;;4931076;29;20047;-67
2022/09/08 05:08:51;;;;;;;30.33;27.42;;;19.00;69.90;;;;;;4947168;29;20043;-67
2022/09/08 05:11:19;;;;;;;27.80;25.20;;;19.00;70.30;;;;;;4927781;29;20043;-67
2022/09/08 05:13:45;;;;;;;30.15;27.20;;;19.00;70.90;;;;;;4952466;28;20056;-67
2022/09/08 05:16:17;;;;;;;27.40;24.67;;;19.00;70.50;;;;;;4925894;29;20040;-67
2022/09/08 05:18:47;;;;;;;24.33;21.92;;;18.90;70.80;;;;;;4917900;29;20058;-67
2022/09/08 05:21:13;;;;;;;13.32;11.93;;;18.90;70.80;;;;;;4952026;29;20391;-67
2022/09/08 05:23:38;;;;;;;13.60;12.23;;;18.90;70.50;;;;;;4924603;29;20136;-67
2022/09/08 05:26:06;;;;;;;14.60;12.40;;;18.90;70.20;;;;;;4917521;29;20048;-67
2022/09/08 05:28:42;;;;;;;14.25;12.95;;;18.90;70.00;;;;;;4917543;29;20055;-67
2022/09/08 05:31:15;;;;;;;14.30;12.23;;;18.90;69.80;;;;;;4918623;29;20044;-67
2022/09/08 05:33:41;;;;;;;18.23;16.45;;;18.90;69.70;;;;;;4917425;29;20456;-67
2022/09/08 05:36:28;;;;;;;23.42;21.33;;;18.90;69.80;;;;;;4919983;29;20043;-67
2022/09/08 05:38:54;;;;;;;27.10;24.45;;;18.90;70.00;;;;;;4935893;29;20169;-67
2022/09/08 05:41:21;;;;;;;25.10;22.67;;;18.90;70.40;;;;;;4950451;28;20051;-67
2022/09/08 05:43:47;;;;;;;17.88;16.20;;;18.90;70.80;;;;;;4937319;29;20055;-67
2022/09/08 05:46:13;;;;;;;20.92;18.85;;;18.90;70.80;;;;;;4951706;29;20052;-67
2022/09/08 05:48:39;;;;;;;17.77;16.17;;;18.90;70.80;;;;;;4935402;29;20090;-67
2022/09/08 05:51:13;;;;;;;12.70;11.50;;;18.90;70.90;;;;;;4934686;29;20083;-67
2022/09/08 05:53:38;;;;;;;12.88;11.63;;;18.90;70.80;;;;;;4921126;29;20376;-67
2022/09/08 05:56:07;;;;;;;21.98;20.00;;;18.90;70.70;;;;;;4931391;29;20107;-67
2022/09/08 05:58:33;;;;;;;12.35;11.05;;;18.90;70.90;;;;;;4925153;29;20047;-67
2022/09/08 06:01:02;;;;;;;12.57;11.27;;;18.90;71.00;;;;;;4933984;29;20044;-67
2022/09/08 06:03:28;;;;;;;13.05;11.70;;;18.90;70.70;;;;;;4931500;29;20047;-67
2022/09/08 06:05:55;;;;;;;17.75;16.05;;;18.90;70.40;;;;;;4930540;29;20048;-67
2022/09/08 06:08:22;;;;;;;22.25;20.25;;;18.90;70.40;;;;;;4935179;29;20052;-67
2022/09/08 06:10:52;;;;;;;16.15;14.65;;;18.90;70.60;;;;;;4925982;29;20036;-67
2022/09/08 06:13:18;;;;;;;22.75;20.75;;;18.90;70.70;;;;;;4917746;29;20080;-68
2022/09/08 06:15:44;;;;;;;23.15;21.05;;;18.90;70.80;;;;;;4932370;29;20514;-69
2022/09/08 06:18:10;;;;;;;10.82;9.73;;;18.90;70.90;;;;;;4924533;29;20035;-69
2022/09/08 06:20:36;;;;;;;15.23;13.73;;;18.90;70.60;;;;;;4923489;29;20099;-69
2022/09/08 06:23:02;;;;;;;28.98;26.48;;;18.90;70.30;;;;;;4937129;29;20059;-69
2022/09/08 06:25:28;;;;;;;33.22;30.40;;;18.90;70.50;;;;;;4947998;28;20032;-69
2022/09/08 06:28:02;;;;;;;32.92;30.13;;;19.00;71.00;;;;;;4924830;29;20424;-69
2022/09/08 06:30:28;;;;;;;22.98;20.95;;;18.90;71.20;;;;;;4930812;29;20068;-69
2022/09/08 06:33:07;;;;;;;20.45;18.75;;;19.00;71.20;;;;;;4930773;29;20074;-69
2022/09/08 06:35:56;;;;;;;34.17;31.23;;;19.00;71.20;;;;;;4954068;29;20559;-69
2022/09/08 06:38:40;;;;;;;43.05;38.95;;;19.00;71.30;;;;;;4944197;28;20092;-69
2022/09/08 06:41:14;;;;;;;;;;;19.00;71.60;;;;;;4926147;29;20055;-69
2022/09/08 06:43:46;;;;;;;32.33;29.63;;;19.00;71.10;;;;;;4916123;29;19926;-69
2022/09/08 06:46:18;;;;;;;32.97;30.33;;;19.00;71.70;;;;;;4936258;29;20071;-69
2022/09/08 06:48:44;;;;;;;18.60;17.00;;;19.00;71.90;;;;;;4931992;29;20044;-69
2022/09/08 06:51:10;;;;;;;37.45;34.33;;;18.90;71.30;;;;;;4932865;29;20376;-69
2022/09/08 06:53:54;;;;;;;26.83;24.60;;;18.90;71.40;;;;;;4950757;29;20058;-69
2022/09/08 06:56:24;;;;;;;25.92;23.52;;;19.00;71.70;;;;;;4938864;28;20043;-69
2022/09/08 06:58:56;;;;;;;20.35;18.45;;;19.00;71.70;;;;;;4925225;29;20543;-69
2022/09/08 07:01:43;;;;;;;21.67;19.75;;;19.00;71.60;;;;;;4922199;29;20051;-69
2022/09/08 07:04:27;;;;;;;15.90;14.40;;;19.00;71.60;;;;;;4932283;29;20171;-69
2022/09/08 07:06:58;;;;;;;15.13;13.48;;;19.00;71.50;;;;;;4925303;29;20044;-69
2022/09/08 07:09:37;;;;;;;12.90;11.65;;;19.00;71.20;;;;;;4933374;29;20056;-69
2022/09/08 07:12:21;;;;;;;10.82;9.77;;;19.00;70.90;;;;;;4917919;29;20048;-69
2022/09/08 07:14:55;;;;;;;9.45;8.65;;;19.10;70.70;;;;;;4915225;29;20501;-69
2022/09/08 07:17:24;;;;;;;9.98;9.02;;;19.10;70.60;;;;;;4915973;29;20095;-69
2022/09/08 07:19:52;;;;;;;9.85;8.82;;;19.10;70.40;;;;;;4917065;29;20055;-69
2022/09/08 07:22:33;;;;;;;11.60;9.77;;;19.10;70.30;;;;;;4935696;29;20407;-69
2022/09/08 07:25:39;;;;;;;7.97;7.13;;;19.10;70.20;;;;;;4934379;29;20126;-69
2022/09/08 07:28:23;;;;;;;7.25;6.32;;;19.20;70.10;;;;;;4934266;29;20118;-69
2022/09/08 07:31:00;;;;;;;7.88;7.07;;;19.10;69.80;;;;;;4935373;29;20044;-69
2022/09/08 07:33:40;;;;;;;6.78;6.15;;;19.20;70.10;;;;;;4937744;29;20079;-69
2022/09/08 07:36:12;;;;;;;8.20;6.57;;;19.20;70.00;;;;;;4919439;29;20048;-69
2022/09/08 07:38:51;;;;;;;6.88;6.18;;;19.20;69.80;;;;;;4919696;29;20040;-69
2022/09/08 07:41:22;;;;;;;6.60;6.00;;;19.20;69.70;;;;;;4921528;29;20473;-69
2022/09/08 07:43:53;;;;;;;6.80;6.10;;;19.20;69.90;;;;;;4920545;29;20111;-69
2022/09/08 07:46:43;;;;;;;7.22;6.53;;;19.30;70.00;;;;;;4929181;29;20111;-69
2022/09/08 07:49:15;;;;;;;5.25;4.57;;;19.30;69.90;;;;;;4938171;29;20058;-69
2022/09/08 07:52:03;;;;;;;7.00;6.25;;;19.30;69.70;;;;;;4937579;29;20055;-69
2022/09/08 07:54:44;;;;;;;10.93;7.93;;;19.30;69.70;;;;;;4918787;29;20052;-69
2022/09/08 07:57:38;;;;;;;11.75;7.30;;;19.30;70.10;;;;;;4919254;29;20047;-69
2022/09/08 08:00:15;;;;;;;10.27;6.13;;;19.30;70.40;;;;;;4920302;29;20497;-69
2022/09/08 08:03:11;;;;;;;7.22;5.03;;;19.30;70.60;;;;;;4920251;29;20452;-69
2022/09/08 08:05:44;;;;;;;5.30;3.63;;;19.30;70.50;;;;;;4951854;29;20050;-69
2022/09/08 08:08:42;;;;;;;5.45;3.35;;;19.30;70.30;;;;;;4935555;29;20140;-69
2022/09/08 08:11:29;;;;;;;5.18;3.20;;;19.30;69.90;;;;;;4933911;29;20040;-69
2022/09/08 08:14:07;;;;;;;5.78;3.83;;;19.30;69.70;;;;;;4933987;29;20551;-69
2022/09/08 08:16:56;;;;;;;6.75;3.50;;;19.30;69.70;;;;;;4934074;29;20062;-69
2022/09/08 08:19:47;;;;;;;5.57;3.75;;;19.30;69.80;;;;;;4926308;29;20056;-69
2022/09/08 08:22:39;;;;;;;10.57;6.00;;;19.30;70.00;;;;;;4942512;29;20050;-69
2022/09/08 08:25:17;;;;;;;10.68;6.45;;;19.30;70.40;;;;;;4931493;29;20620;-69
2022/09/08 08:28:21;;;;;;;7.07;5.18;;;19.30;70.80;;;;;;4918409;29;20059;-69
2022/09/08 08:31:12;;;;;;;8.77;5.35;;;19.30;70.90;;;;;;4926571;29;20048;-69
2022/09/08 08:33:45;;;;;;;6.63;5.30;;;19.20;70.80;;;;;;4933314;29;20052;-69
2022/09/08 08:36:15;;;;;;;7.90;5.05;;;19.20;71.10;;;;;;4942964;29;20047;-69
2022/09/08 08:38:45;;;;;;;8.80;5.82;;;19.20;71.10;;;;;;4935211;29;20090;-69
2022/09/08 08:41:22;;;;;;;7.18;5.50;;;19.20;71.20;;;;;;4923642;29;20449;-69
2022/09/08 08:43:55;;;;;;;7.38;5.60;;;19.10;71.30;;;;;;4918117;29;20059;-69
2022/09/08 08:46:58;;;;;;;7.70;6.30;;;19.10;71.40;;;;;;4918456;29;20116;-69
2022/09/08 08:49:58;;;;;;;8.07;5.53;;;19.00;71.30;;;;;;4936120;29;20128;-69
2022/09/08 08:52:49;;;;;;;7.07;4.75;;;19.00;71.50;;;;;;4918938;29;20099;-69
2022/09/08 08:55:33;;;;;;;5.18;4.07;;;19.00;71.60;;;;;;4956945;28;20056;-69
2022/09/08 08:58:02;;;;;;;;;;;19.00;71.50;;;;;;4923600;29;20489;-69
2022/09/08 09:00:47;;;;;;;6.72;4.75;;;19.00;71.30;;;;;;4918466;29;20367;-70
2022/09/08 09:03:27;;;;;;;7.47;5.82;;;18.90;71.70;;;;;;4917761;29;20119;-69
2022/09/08 09:06:02;;;;;;;5.85;4.75;;;18.90;72.00;;;;;;4917511;29;20048;-69
2022/09/08 09:08:43;;;;;;;8.73;5.57;;;18.90;72.10;;;;;;4920147;29;20510;-69
2022/09/08 09:11:40;;;;;;;7.05;4.93;;;18.90;72.20;;;;;;4917723;29;20091;-69
2022/09/08 09:14:27;;;;;;;6.10;4.32;;;18.80;72.20;;;;;;4929778;29;20052;-69
2022/09/08 09:17:05;;;;;;;4.40;3.20;;;18.80;72.10;;;;;;4936082;29;20043;-69
2022/09/08 09:19:52;;;;;;;5.15;2.97;;;18.80;72.00;;;;;;4936353;29;20055;-69
2022/09/08 09:22:24;;;;;;;3.85;2.70;;;18.80;72.10;;;;;;4951047;29;20058;-69
2022/09/08 09:25:20;;;;;;;4.13;2.40;;;18.80;72.10;;;;;;4937753;29;20051;-69
2022/09/08 09:27:59;;;;;;;4.25;2.70;;;18.80;71.90;;;;;;4950766;28;20054;-69
2022/09/08 09:30:29;;;;;;;5.10;2.67;;;18.80;72.00;;;;;;4938137;29;20492;-69
2022/09/08 09:33:19;;;;;;;3.17;2.30;;;18.80;71.80;;;;;;4917699;29;20504;-69
2022/09/08 09:36:23;;;;;;;4.68;2.25;;;18.90;71.60;;;;;;4917283;29;20051;-69
2022/09/08 09:39:14;;;;;;;5.93;2.42;;;18.90;71.40;;;;;;4918221;29;20055;-69
2022/09/08 09:41:58;;;;;;;3.78;2.00;;;18.90;71.40;;;;;;4917015;29;20056;-69
2022/09/08 09:44:51;;;;;;;3.05;2.00;;;18.90;71.30;;;;;;4922269;29;20058;-69
2022/09/08 09:47:32;;;;;;;4.45;2.20;;;18.90;71.20;;;;;;4933574;29;20052;-69
2022/09/08 09:50:03;;;;;;;3.15;2.03;;;19.00;71.10;;;;;;4917009;29;20054;-69
2022/09/08 09:53:00;;;;;;;5.88;2.65;;;19.00;71.10;;;;;;4916699;29;20444;-69
2022/09/08 09:55:54;;;;;;;4.60;2.42;;;19.00;70.80;;;;;;4919425;29;20040;-69
2022/09/08 09:58:22;;;;;;;5.10;2.15;;;19.00;70.90;;;;;;4925890;29;20052;-69
2022/09/08 10:01:15;;;;;;;3.03;1.90;;;19.00;70.90;;;;;;4935524;29;20052;-69
2022/09/08 10:03:54;;;;;;;4.13;2.13;;;19.10;70.80;;;;;;4931932;29;20404;-69
2022/09/08 10:06:23;;;;;;;3.65;2.08;;;19.10;70.90;;;;;;4936971;29;20039;-69
2022/09/08 10:09:13;;;;;;;3.50;2.42;;;19.10;70.90;;;;;;4922825;29;20040;-69
2022/09/08 10:11:59;;;;;;;3.15;2.40;;;19.20;70.90;;;;;;4916687;29;20055;-69
2022/09/08 10:14:52;;;;;;;3.47;2.30;;;19.20;70.60;;;;;;4916108;29;20058;-69
2022/09/08 10:17:33;;;;;;;3.50;2.13;;;19.20;70.50;;;;;;4920702;29;20035;-69
2022/09/08 10:20:14;;;;;;;3.13;2.00;;;19.20;70.30;;;;;;4950942;29;20168;-69
2022/09/08 10:23:01;;;;;;;4.00;2.60;;;19.20;70.10;;;;;;4951412;29;20047;-69
2022/09/08 10:25:51;;;;;;;3.55;3.05;;;19.20;70.10;;;;;;4951595;29;20047;-69
2022/09/08 10:28:38;;;;;;;4.93;3.33;;;19.20;70.40;;;;;;4917609;29;20054;-66
2022/09/08 10:31:22;;;;;;;4.05;3.60;;;19.20;70.20;;;;;;4916285;29;20080;-66
2022/09/08 10:34:08;;;;;;;3.95;2.83;;;19.20;70.30;;;;;;4917433;29;20410;-66
2022/09/08 10:36:48;;;;;;;3.20;2.80;;;19.20;70.30;;;;;;4916681;29;20040;-66
2022/09/08 10:39:41;;;;;;;3.20;2.70;;;19.20;70.30;;;;;;4917071;29;20048;-66
2022/09/08 10:42:29;;;;;;;3.90;3.30;;;19.20;70.10;;;;;;4915990;29;20489;-66
2022/09/08 10:45:16;;;;;;;3.72;2.35;;;19.20;70.10;;;;;;4916093;29;20127;-66
2022/09/08 10:48:06;;;;;;;3.47;2.72;;;19.20;70.20;;;;;;4917103;29;20043;-66
2022/09/08 10:50:33;;;;;;;3.08;2.58;;;19.20;70.20;;;;;;4932281;29;20082;-66
2022/09/08 10:53:41;;;;;;;3.17;2.00;;;19.20;70.20;;;;;;4935084;29;20525;-68
2022/09/08 10:56:10;;;;;;;2.35;1.75;;;19.20;69.90;;;;;;4923932;29;20074;-69
2022/09/08 10:58:54;;;;;;;3.78;2.25;;;19.20;70.10;;;;;;4925676;29;20036;-69
2022/09/08 11:01:57;;;;;;;3.35;2.33;;;19.20;70.10;;;;;;4915894;29;20048;-69
2022/09/08 11:04:57;;;;;;;5.22;3.10;;;19.20;69.80;;;;;;4915185;29;20056;-69
2022/09/08 11:07:43;;;;;;;3.58;2.50;;;19.20;69.90;;;;;;4926722;29;20051;-69
2022/09/08 11:10:45;;;;;;;3.83;2.45;;;19.20;69.90;;;;;;4931763;29;20056;-69
2022/09/08 11:13:41;;;;;;;3.65;2.10;;;19.20;69.80;;;;;;4915650;29;20079;-69
2022/09/08 11:16:41;;;;;;;3.58;2.03;;;19.20;69.90;;;;;;4934422;29;20043;-69
2022/09/08 11:19:31;;;;;;;2.88;2.30;;;19.20;70.00;;;;;;4920829;29;20139;-69
2022/09/08 11:22:18;;;;;;;4.35;3.05;;;19.10;70.10;;;;;;4916943;29;20052;-69
2022/09/08 11:25:12;;;;;;;3.15;2.28;;;19.20;70.30;;;;;;4922949;29;20047;-69
2022/09/08 11:28:12;;;;;;;5.35;3.88;;;19.20;70.20;;;;;;4934045;29;20051;-69
2022/09/08 11:31:09;;;;;;;3.03;2.60;;;19.20;70.20;;;;;;4950362;29;20051;-69
2022/09/08 11:33:50;;;;;;;3.75;2.92;;;19.20;70.20;;;;;;4926096;29;20127;-69
2022/09/08 11:36:24;;;;;;;4.18;3.30;;;19.30;70.40;;;;;;4950354;29;20044;-66
2022/09/08 11:39:21;;;;;;;5.13;4.40;;;19.30;70.60;;;;;;4943270;29;20048;-66
2022/09/08 11:42:17;;;;;;;4.55;4.15;;;19.30;70.60;;;;;;4931029;29;20057;-66
2022/09/08 11:45:22;;;;;;;7.65;6.07;;;19.30;70.70;;;;;;4915247;29;20119;-66
2022/09/08 11:48:08;;;;;;;6.20;4.90;;;19.30;70.80;;;;;;4916385;29;20086;-66
2022/09/08 11:50:36;;;;;;;6.13;5.63;;;19.40;70.70;;;;;;4922696;29;20079;-66
2022/09/08 11:53:40;;;;;;;7.95;6.68;;;19.40;71.00;;;;;;4937386;29;20052;-66
2022/09/08 11:56:43;;;;;;;6.93;5.15;;;19.40;70.70;;;;;;4915037;29;20064;-66
2022/09/08 11:59:26;;;;;;;7.47;5.88;;;19.50;70.90;;;;;;4928664;29;20044;-66
2022/09/08 12:02:13;;;;;;;7.82;6.72;;;19.50;70.90;;;;;;4934216;29;20555;-66
2022/09/08 12:04:51;;;;;;;7.38;5.57;;;19.50;71.00;;;;;;4936741;29;20126;-66
2022/09/08 12:07:55;;;;;;;8.05;7.25;;;19.60;71.20;;;;;;4915202;29;20059;-66
2022/09/08 12:10:34;;;;;;;10.27;9.00;;;19.60;70.80;;;;;;4915095;29;20055;-66
2022/09/08 12:13:09;;;;;;;9.32;7.90;;;19.60;70.80;;;;;;4915154;29;20519;-66
2022/09/08 12:15:40;;;;;;;11.40;10.23;;;19.70;70.70;;;;;;4915420;29;20048;-66
2022/09/08 12:18:43;;;;;;;10.90;9.82;;;19.70;70.70;;;;;;4925580;29;20048;-66
2022/09/08 12:21:33;;;;;;;12.90;11.70;;;19.70;70.40;;;;;;4918871;29;20481;-66
2022/09/08 12:24:21;;;;;;;9.43;8.52;;;19.70;70.10;;;;;;4918765;29;20457;-66
2022/09/08 12:27:10;;;;;;;11.93;10.80;;;19.80;70.20;;;;;;4918697;29;20051;-66
2022/09/08 12:29:51;;;;;;;11.13;10.02;;;19.80;70.50;;;;;;4919496;29;20516;-66
2022/09/08 12:32:43;;;;;;;11.35;10.15;;;19.80;70.40;;;;;;4918612;29;20131;-66
2022/09/08 12:35:48;;;;;;;13.27;11.95;;;19.90;70.50;;;;;;4937461;29;20055;-66
2022/09/08 12:38:51;;;;;;;12.85;11.75;;;20.00;70.00;;;;;;4900395;29;20051;-66
2022/09/08 12:41:54;;;;;;;13.65;12.23;;;20.00;70.10;;;;;;4918115;29;20116;-66
2022/09/08 12:44:42;;;;;;;11.23;10.10;;;20.10;70.00;;;;;;4919078;29;20083;-66
2022/09/08 12:47:33;;;;;;;13.15;11.95;;;20.00;69.60;;;;;;4953138;29;20075;-66
2022/09/08 12:50:11;;;;;;;11.27;10.15;;;20.10;69.80;;;;;;4919389;29;20122;-66
2022/09/08 12:52:40;;;;;;;12.35;11.07;;;20.10;69.60;;;;;;4918239;29;20506;-66
2022/09/08 12:55:24;;;;;;;12.57;11.38;;;20.20;70.00;;;;;;4917826;29;20048;-66
2022/09/08 12:57:55;;;;;;;11.68;10.60;;;20.20;69.80;;;;;;4919302;29;20492;-66
2022/09/08 13:00:30;;;;;;;12.48;11.10;;;20.30;69.60;;;;;;4937108;29;20047;-67
2022/09/08 13:03:23;;;;;;;16.17;11.93;;;20.30;69.90;;;;;;4926775;29;20047;-68
2022/09/08 13:05:52;;;;;;;12.33;10.77;;;20.40;69.80;;;;;;4925592;29;20529;-68
2022/09/08 13:08:37;;;;;;;11.77;10.68;;;20.40;69.80;;;;;;4948123;28;20292;-69
2022/09/08 13:11:18;;;;;;;11.75;10.55;;;20.40;69.10;;;;;;4917803;29;20535;-69
2022/09/08 13:13:44;;;;;;;11.75;10.57;;;20.50;68.90;;;;;;4917596;29;20046;-69
2022/09/08 13:16:30;;;;;;;12.00;10.75;;;20.50;68.70;;;;;;4918007;29;20098;-69
2022/09/08 13:19:20;;;;;;;11.52;10.35;;;20.60;68.60;;;;;;4918644;29;20127;-68
2022/09/08 13:22:05;;;;;;;9.10;8.10;;;20.60;68.40;;;;;;4924982;29;20126;-68
2022/09/08 13:24:59;;;;;;;14.40;10.55;;;20.50;68.40;;;;;;4937387;29;20055;-68